Time;durP1;ratioP1;P1;durP2;ratioP2;P2;SDS_P1;SDS_P2;PMS_P1;PMS_P2;Temp;Humidity;BMP_temperature;BMP_pressure;BME280_temperature;BME280_humidity;BME280_pressure;Samples;Min_cycle;Max_cycle;Signal;HPM_P1;HPM_P2
2021/01/07 00:01:04;;;;;;;1.40;0.55;;;2.20;99.90;;;;;;10359946;28;20052;-52
2021/01/07 00:06:25;;;;;;;1.50;0.85;;;2.30;99.90;;;;;;10363986;28;20044;-51
2021/01/07 00:11:51;;;;;;;3.03;1.23;;;2.30;99.90;;;;;;10362781;28;20042;-52
2021/01/07 00:17:12;;;;;;;2.80;1.40;;;2.40;99.90;;;;;;10361482;28;20077;-52
2021/01/07 00:22:33;;;;;;;3.90;1.13;;;2.30;99.90;;;;;;10360691;28;20077;-52
2021/01/07 00:27:54;;;;;;;2.85;0.80;;;2.30;99.90;;;;;;10359569;28;20284;-52
2021/01/07 00:33:16;;;;;;;1.70;0.60;;;2.30;99.90;;;;;;10362186;28;20042;-52
2021/01/07 00:38:37;;;;;;;2.78;0.55;;;2.20;99.90;;;;;;10360024;28;20038;-52
2021/01/07 00:43:58;;;;;;;2.42;0.95;;;2.30;99.90;;;;;;10360251;28;20037;-52
2021/01/07 00:49:20;;;;;;;2.35;0.80;;;2.20;99.90;;;;;;10361824;28;20041;-52
2021/01/07 00:54:41;;;;;;;2.20;0.73;;;2.30;99.90;;;;;;10363639;28;20797;-52
2021/01/07 01:00:07;;;;;;;4.15;1.25;;;2.30;99.90;;;;;;10361328;28;20699;-52
2021/01/07 01:05:28;;;;;;;2.55;0.98;;;2.30;99.90;;;;;;10358022;28;20042;-52
2021/01/07 01:10:49;;;;;;;1.42;0.50;;;2.30;99.90;;;;;;10355778;28;20038;-52
2021/01/07 01:16:10;;;;;;;4.13;1.63;;;2.20;99.90;;;;;;10358567;28;20036;-52
2021/01/07 01:21:32;;;;;;;1.98;0.70;;;2.20;99.90;;;;;;10355132;28;20501;-52
2021/01/07 01:26:55;;;;;;;1.27;0.70;;;2.30;99.90;;;;;;10358813;28;20041;-52
2021/01/07 01:32:16;;;;;;;0.95;0.28;;;2.10;99.90;;;;;;10359245;28;20061;-52
2021/01/07 01:37:38;;;;;;;1.33;0.57;;;2.10;99.90;;;;;;10369006;28;20034;-52
2021/01/07 01:42:59;;;;;;;0.82;0.38;;;2.10;99.90;;;;;;10358212;28;20561;-52
2021/01/07 01:48:20;;;;;;;1.38;0.50;;;2.00;99.90;;;;;;10357492;28;20049;-52
2021/01/07 01:53:42;;;;;;;0.77;0.57;;;2.00;99.90;;;;;;10357784;28;20444;-52
2021/01/07 01:59:02;;;;;;;1.60;0.70;;;1.90;99.90;;;;;;10356507;28;20032;-52
2021/01/07 02:04:23;;;;;;;2.17;0.63;;;1.90;99.90;;;;;;10357464;28;20574;-52
2021/01/07 02:09:45;;;;;;;1.58;0.57;;;1.90;99.90;;;;;;10356887;28;20045;-52
2021/01/07 02:15:06;;;;;;;1.52;0.50;;;1.90;99.90;;;;;;10354927;28;20087;-52
2021/01/07 02:20:28;;;;;;;1.33;0.30;;;2.10;99.90;;;;;;10357138;28;20125;-52
2021/01/07 02:25:49;;;;;;;0.90;0.50;;;2.00;99.90;;;;;;10356419;28;20030;-52
2021/01/07 02:31:10;;;;;;;2.72;0.60;;;2.10;99.90;;;;;;10361527;28;20050;-52
2021/01/07 02:36:31;;;;;;;2.13;0.35;;;2.10;99.90;;;;;;10358084;28;20049;-52
2021/01/07 02:41:54;;;;;;;0.73;0.52;;;2.10;99.90;;;;;;10359506;28;20045;-52
2021/01/07 02:47:15;;;;;;;0.85;0.30;;;2.10;99.90;;;;;;10354840;28;20034;-52
2021/01/07 02:52:36;;;;;;;0.57;0.15;;;2.00;99.90;;;;;;10356068;28;20037;-52
2021/01/07 02:57:57;;;;;;;0.32;0.13;;;2.10;99.90;;;;;;10355662;28;20525;-52
2021/01/07 03:03:18;;;;;;;0.43;0.20;;;2.10;99.90;;;;;;10356892;28;20787;-52
2021/01/07 03:08:39;;;;;;;0.30;0.20;;;2.10;99.90;;;;;;10359133;28;20454;-52
2021/01/07 03:14:00;;;;;;;0.57;0.20;;;2.00;99.90;;;;;;10366032;28;20416;-52
2021/01/07 03:19:22;;;;;;;1.10;0.40;;;2.00;99.90;;;;;;10365315;28;20041;-52
2021/01/07 03:24:42;;;;;;;0.95;0.20;;;2.00;99.90;;;;;;10363476;28;20153;-52
2021/01/07 03:30:06;;;;;;;0.20;0.10;;;2.00;99.90;;;;;;10362702;28;20054;-52
2021/01/07 03:35:27;;;;;;;0.65;0.22;;;2.00;99.90;;;;;;10362376;28;20046;-52
2021/01/07 03:40:48;;;;;;;0.98;0.20;;;2.00;99.90;;;;;;10361713;28;20038;-52
2021/01/07 03:46:08;;;;;;;1.27;0.25;;;2.00;99.90;;;;;;10364802;28;20049;-52
2021/01/07 03:51:29;;;;;;;1.10;0.30;;;2.00;99.90;;;;;;10365543;28;20386;-52
2021/01/07 03:56:50;;;;;;;1.63;0.43;;;2.00;99.90;;;;;;10363433;28;20728;-52
2021/01/07 04:02:11;;;;;;;1.23;0.82;;;2.00;99.90;;;;;;10362011;28;20080;-52
2021/01/07 04:07:32;;;;;;;0.10;0.03;;;2.00;99.90;;;;;;10359484;28;20047;-52
2021/01/07 04:12:53;;;;;;;2.03;1.23;;;2.00;99.90;;;;;;10364018;28;20048;-51
2021/01/07 04:18:14;;;;;;;2.17;0.75;;;2.00;99.90;;;;;;10360195;28;20049;-51
2021/01/07 04:23:35;;;;;;;0.40;0.22;;;2.00;99.90;;;;;;10364058;28;20034;-52
2021/01/07 04:28:56;;;;;;;0.75;0.10;;;2.10;99.90;;;;;;10364931;28;20045;-52
2021/01/07 04:34:17;;;;;;;1.00;0.32;;;2.10;99.90;;;;;;10334799;28;20050;-52
2021/01/07 04:39:38;;;;;;;5.35;0.38;;;2.10;99.90;;;;;;10363860;28;20974;-52
2021/01/07 04:45:00;;;;;;;0.55;0.30;;;2.10;99.90;;;;;;10360819;28;20409;-52
2021/01/07 04:50:21;;;;;;;1.45;0.47;;;2.20;99.90;;;;;;10360906;28;20402;-52
2021/01/07 04:55:42;;;;;;;0.93;0.30;;;2.20;99.90;;;;;;10360981;28;20099;-52
2021/01/07 05:01:04;;;;;;;1.10;0.30;;;2.30;99.90;;;;;;10358524;28;20455;-52
2021/01/07 05:06:25;;;;;;;0.28;0.15;;;2.20;99.90;;;;;;10361497;28;20037;-52
2021/01/07 05:11:47;;;;;;;0.95;0.30;;;2.30;99.90;;;;;;10363011;28;20471;-52
2021/01/07 05:17:12;;;;;;;0.50;0.13;;;2.30;99.90;;;;;;10359586;28;20038;-52
2021/01/07 05:22:41;;;;;;;0.73;0.10;;;2.40;99.90;;;;;;10358669;28;20065;-52
2021/01/07 05:28:04;;;;;;;0.52;0.20;;;2.30;99.90;;;;;;10362894;28;20076;-52
2021/01/07 05:33:27;;;;;;;0.35;0.25;;;2.40;99.90;;;;;;10355653;28;20041;-51
2021/01/07 05:38:53;;;;;;;0.75;0.20;;;2.40;99.90;;;;;;10352434;28;20555;-52
2021/01/07 05:44:14;;;;;;;1.17;0.25;;;2.40;99.90;;;;;;10348358;28;20046;-52
2021/01/07 05:49:36;;;;;;;0.17;0.15;;;2.40;99.90;;;;;;10362734;28;20356;-52
2021/01/07 05:54:59;;;;;;;0.63;0.20;;;2.40;99.90;;;;;;10349106;28;20434;-52
2021/01/07 06:00:21;;;;;;;0.77;0.40;;;2.50;99.90;;;;;;10347740;28;20033;-52
2021/01/07 06:05:44;;;;;;;0.40;0.10;;;2.50;99.90;;;;;;10353062;28;20509;-52
2021/01/07 06:11:06;;;;;;;0.30;0.17;;;2.50;99.90;;;;;;10355374;28;20040;-52
2021/01/07 06:16:27;;;;;;;1.88;0.30;;;2.40;99.90;;;;;;10348940;28;20042;-52
2021/01/07 06:21:48;;;;;;;0.52;0.05;;;2.40;99.90;;;;;;10358486;28;20042;-52
2021/01/07 06:27:33;;;;;;;0.40;0.08;;;2.40;99.90;;;;;;10345849;28;20112;-52
2021/01/07 06:33:08;;;;;;;1.05;0.22;;;2.50;99.90;;;;;;10349980;28;20046;-52
2021/01/07 06:38:29;;;;;;;1.83;0.40;;;2.50;99.90;;;;;;10348184;28;20040;-52
2021/01/07 06:43:51;;;;;;;1.92;0.47;;;2.50;99.90;;;;;;10349460;28;20041;-52
2021/01/07 06:49:29;;;;;;;0.25;0.03;;;2.50;99.90;;;;;;10345267;28;20048;-52
2021/01/07 06:54:53;;;;;;;0.43;0.32;;;2.50;99.90;;;;;;10346597;28;20609;-52
2021/01/07 07:00:16;;;;;;;0.68;0.20;;;2.50;99.90;;;;;;10356198;28;20784;-52
2021/01/07 07:05:39;;;;;;;0.20;0.10;;;2.50;99.90;;;;;;10347590;28;20597;-52
2021/01/07 07:11:08;;;;;;;0.80;0.30;;;2.60;99.90;;;;;;10351611;28;20042;-52
2021/01/07 07:16:33;;;;;;;1.08;0.47;;;2.50;99.90;;;;;;10345769;28;20432;-52
2021/01/07 07:22:06;;;;;;;0.85;0.38;;;2.60;99.90;;;;;;10346401;28;20417;-52
2021/01/07 07:27:54;;;;;;;0.95;0.32;;;2.60;99.90;;;;;;10347950;28;20030;-52
2021/01/07 07:33:39;;;;;;;2.08;0.70;;;2.60;99.90;;;;;;10350624;28;20087;-52
2021/01/07 07:39:01;;;;;;;0.75;0.30;;;2.50;99.90;;;;;;10351324;28;20272;-52
2021/01/07 07:44:22;;;;;;;1.85;0.57;;;2.60;99.90;;;;;;10346973;28;20062;-52
2021/01/07 07:49:43;;;;;;;1.83;0.60;;;2.60;99.90;;;;;;10345879;28;20568;-53
2021/01/07 07:55:05;;;;;;;0.30;0.20;;;2.60;99.90;;;;;;10349240;28;20533;-52
2021/01/07 08:00:28;;;;;;;2.72;0.65;;;2.60;99.90;;;;;;10355331;28;20389;-52
2021/01/07 08:05:49;;;;;;;0.63;0.43;;;2.70;99.90;;;;;;10358596;28;20136;-52
2021/01/07 08:11:10;;;;;;;0.50;0.20;;;2.70;99.90;;;;;;10368779;28;20037;-52
2021/01/07 08:16:31;;;;;;;1.30;0.40;;;2.70;99.90;;;;;;10363808;28;20049;-53
2021/01/07 08:21:53;;;;;;;1.27;0.57;;;2.80;99.90;;;;;;10367219;28;20022;-52
2021/01/07 08:27:23;;;;;;;0.90;0.22;;;2.80;99.90;;;;;;10366673;28;20065;-53
2021/01/07 08:32:48;;;;;;;0.45;0.20;;;2.90;99.90;;;;;;10367265;28;20169;-52
2021/01/07 08:38:09;;;;;;;1.48;0.40;;;2.90;99.90;;;;;;10364690;28;20041;-53
2021/01/07 08:43:30;;;;;;;0.95;0.38;;;3.00;99.90;;;;;;10368231;28;20026;-53
2021/01/07 08:49:09;;;;;;;0.32;0.10;;;3.00;99.90;;;;;;10364411;28;20072;-53
2021/01/07 08:54:30;;;;;;;1.33;0.40;;;3.10;99.90;;;;;;10364511;28;20039;-52
2021/01/07 08:59:51;;;;;;;0.68;0.30;;;3.20;99.90;;;;;;10368028;28;20158;-53
2021/01/07 09:05:12;;;;;;;1.48;0.63;;;3.20;99.90;;;;;;10377314;28;20104;-53
2021/01/07 09:10:34;;;;;;;0.10;0.00;;;3.20;99.90;;;;;;10369261;28;20197;-53
2021/01/07 09:16:11;;;;;;;1.83;0.40;;;3.30;99.90;;;;;;10362922;28;20116;-53
2021/01/07 09:21:37;;;;;;;0.57;0.13;;;3.40;99.90;;;;;;10363753;28;20080;-53
2021/01/07 09:27:14;;;;;;;2.20;0.85;;;3.40;99.90;;;;;;10363636;28;20057;-53
2021/01/07 09:32:35;;;;;;;0.82;0.20;;;3.40;99.90;;;;;;10363903;28;20081;-53
2021/01/07 09:37:56;;;;;;;1.10;0.20;;;3.30;99.90;;;;;;10365020;28;20123;-53
2021/01/07 09:43:17;;;;;;;0.65;0.20;;;3.30;99.90;;;;;;10368742;28;20094;-53
2021/01/07 09:48:38;;;;;;;1.95;0.40;;;3.40;99.90;;;;;;10357232;28;20049;-53
2021/01/07 09:53:59;;;;;;;12.38;0.30;;;3.40;99.90;;;;;;10367020;28;20107;-53
2021/01/07 09:59:25;;;;;;;0.32;0.20;;;3.50;99.90;;;;;;10363328;28;20049;-53
2021/01/07 10:04:46;;;;;;;0.95;0.40;;;3.60;99.90;;;;;;10365242;28;20038;-53
2021/01/07 10:10:08;;;;;;;2.00;0.22;;;3.60;99.90;;;;;;10363600;28;20065;-53
2021/01/07 10:15:29;;;;;;;0.77;0.20;;;3.60;99.90;;;;;;10366133;28;20045;-53
2021/01/07 10:20:50;;;;;;;0.35;0.17;;;3.60;99.90;;;;;;10365257;28;20041;-53
2021/01/07 10:26:11;;;;;;;1.08;0.52;;;3.70;99.90;;;;;;10361550;28;20459;-53
2021/01/07 10:31:32;;;;;;;0.68;0.35;;;3.70;99.90;;;;;;10361974;28;20041;-53
2021/01/07 10:36:56;;;;;;;9.63;0.30;;;3.80;99.90;;;;;;10363460;28;20034;-53
2021/01/07 10:42:18;;;;;;;0.93;0.60;;;3.90;99.90;;;;;;10364568;28;20042;-54
2021/01/07 10:47:44;;;;;;;2.60;0.80;;;4.00;99.90;;;;;;10364163;28;20530;-53
2021/01/07 10:53:27;;;;;;;0.80;0.38;;;4.10;99.90;;;;;;10362292;28;20088;-53
2021/01/07 10:59:28;;;;;;;0.45;0.22;;;4.20;99.90;;;;;;10364152;28;20041;-53
2021/01/07 11:05:27;;;;;;;0.82;0.38;;;4.40;99.90;;;;;;10353548;28;20472;-53
2021/01/07 11:10:53;;;;;;;0.90;0.40;;;4.50;99.90;;;;;;10355754;28;20048;-53
2021/01/07 11:16:21;;;;;;;0.88;0.50;;;4.60;99.90;;;;;;10357262;28;20490;-53
2021/01/07 11:21:55;;;;;;;2.03;0.85;;;4.70;99.90;;;;;;10372501;28;20050;-54
2021/01/07 11:27:17;;;;;;;1.25;0.38;;;4.70;99.90;;;;;;10365278;28;20037;-54
2021/01/07 11:32:39;;;;;;;0.98;0.85;;;4.70;99.90;;;;;;10366979;28;20598;-53
2021/01/07 11:38:03;;;;;;;0.75;0.70;;;4.80;99.90;;;;;;10371091;27;20065;-54
2021/01/07 11:43:58;;;;;;;1.02;0.40;;;4.80;99.90;;;;;;10369007;28;20034;-53
2021/01/07 11:49:19;;;;;;;0.68;0.22;;;4.80;99.90;;;;;;10368312;28;20138;-53
2021/01/07 11:54:42;;;;;;;0.20;0.20;;;4.90;99.90;;;;;;10369546;28;20069;-54
2021/01/07 12:00:04;;;;;;;9.88;1.35;;;4.90;99.90;;;;;;10370913;28;21117;-53
2021/01/07 12:05:25;;;;;;;0.63;0.17;;;5.00;99.90;;;;;;10379769;28;20464;-53
2021/01/07 12:10:51;;;;;;;1.08;0.70;;;5.00;99.90;;;;;;10383837;28;20385;-53
2021/01/07 12:16:28;;;;;;;0.63;0.20;;;5.10;99.90;;;;;;10372081;28;20034;-53
2021/01/07 12:21:49;;;;;;;3.95;0.85;;;5.20;99.90;;;;;;10368089;28;20100;-53
2021/01/07 12:27:11;;;;;;;2.05;0.43;;;5.10;99.90;;;;;;10379600;28;20030;-53
2021/01/07 12:32:34;;;;;;;1.23;0.40;;;5.20;99.90;;;;;;10377616;28;20042;-53
2021/01/07 12:38:07;;;;;;;0.35;0.35;;;5.10;99.90;;;;;;10367231;28;20084;-53
2021/01/07 12:43:32;;;;;;;1.38;0.63;;;5.10;99.90;;;;;;10369522;28;20481;-53
2021/01/07 12:48:53;;;;;;;2.53;0.40;;;5.00;99.90;;;;;;10369934;28;20091;-53
2021/01/07 12:54:15;;;;;;;1.05;0.30;;;4.90;99.90;;;;;;10371720;28;20034;-53
2021/01/07 12:59:59;;;;;;;2.45;1.25;;;4.80;99.90;;;;;;10366917;28;20069;-53
2021/01/07 13:05:31;;;;;;;2.83;0.98;;;4.80;99.90;;;;;;10365272;28;20064;-53
2021/01/07 13:10:54;;;;;;;0.35;0.20;;;4.90;99.90;;;;;;10363689;28;20436;-53
2021/01/07 13:16:16;;;;;;;1.48;0.40;;;4.70;99.90;;;;;;10376945;28;20041;-53
2021/01/07 13:21:38;;;;;;;0.95;0.10;;;4.60;99.90;;;;;;10368790;28;20045;-53
2021/01/07 13:26:59;;;;;;;0.17;0.08;;;4.60;99.90;;;;;;10367458;28;20068;-53
2021/01/07 13:32:22;;;;;;;2.72;0.30;;;4.50;99.90;;;;;;10365713;28;20692;-53
2021/01/07 13:37:47;;;;;;;1.42;0.52;;;4.40;99.90;;;;;;10366530;28;20046;-53
2021/01/07 13:43:09;;;;;;;0.77;0.35;;;4.30;99.90;;;;;;10365941;28;20062;-53
2021/01/07 13:48:32;;;;;;;0.45;0.22;;;4.20;99.90;;;;;;10371843;28;20632;-54
2021/01/07 13:53:54;;;;;;;2.67;0.22;;;4.20;99.90;;;;;;10364426;28;20034;-54
2021/01/07 13:59:15;;;;;;;4.60;0.30;;;4.20;99.90;;;;;;10363060;28;20401;-54
2021/01/07 14:04:40;;;;;;;0.60;0.22;;;4.10;99.90;;;;;;10364929;28;20079;-54
2021/01/07 14:10:04;;;;;;;1.55;0.47;;;4.00;99.90;;;;;;10366335;28;20071;-54
2021/01/07 14:15:26;;;;;;;5.63;0.43;;;4.10;99.90;;;;;;10363974;28;20630;-54
2021/01/07 14:20:47;;;;;;;0.55;0.20;;;4.10;99.90;;;;;;10364626;28;20068;-54
2021/01/07 14:26:09;;;;;;;0.40;0.20;;;4.30;99.90;;;;;;10363929;28;20041;-59
2021/01/07 14:31:34;;;;;;;0.73;0.22;;;4.40;99.90;;;;;;10363326;28;20041;-54
2021/01/07 14:37:00;;;;;;;2.90;0.63;;;4.40;99.90;;;;;;10362810;28;20045;-54
2021/01/07 14:42:22;;;;;;;0.47;0.15;;;4.50;99.90;;;;;;10365512;28;20508;-54
2021/01/07 14:47:47;;;;;;;3.58;0.40;;;4.50;99.90;;;;;;10366062;28;20196;-54
2021/01/07 14:53:20;;;;;;;1.15;0.63;;;4.50;99.90;;;;;;10363613;28;20037;-54
2021/01/07 14:59:06;;;;;;;2.42;1.05;;;4.50;99.90;;;;;;10364902;28;20478;-54
2021/01/07 15:04:45;;;;;;;0.50;0.20;;;4.40;99.90;;;;;;10361639;28;20026;-54
2021/01/07 15:10:08;;;;;;;3.25;0.95;;;4.50;99.90;;;;;;10365941;28;20046;-54
2021/01/07 15:15:32;;;;;;;0.98;0.70;;;4.40;99.90;;;;;;10364772;28;20126;-54
2021/01/07 15:21:31;;;;;;;0.00;0.00;;;4.40;99.90;;;;;;10373427;28;20061;-54
2021/01/07 15:27:37;;;;;;;0.10;0.10;;;4.40;99.90;;;;;;10365446;28;20639;-54
2021/01/07 15:33:01;;;;;;;0.17;0.08;;;4.30;99.90;;;;;;10364230;28;20085;-54
2021/01/07 15:38:53;;;;;;;1.10;0.30;;;4.30;99.90;;;;;;10360669;28;20042;-54
2021/01/07 15:44:38;;;;;;;0.25;0.10;;;4.30;99.90;;;;;;10363398;28;20038;-54
2021/01/07 15:50:10;;;;;;;0.22;0.20;;;4.20;99.90;;;;;;10373047;28;20041;-54
2021/01/07 15:55:36;;;;;;;0.60;0.60;;;4.30;99.90;;;;;;10361420;28;20075;-54
2021/01/07 16:00:59;;;;;;;0.10;0.00;;;4.30;99.90;;;;;;10365363;28;20046;-54
2021/01/07 16:06:31;;;;;;;0.52;0.30;;;4.20;99.90;;;;;;10361512;28;20049;-54
2021/01/07 16:11:57;;;;;;;0.60;0.20;;;4.10;99.90;;;;;;10365705;28;20102;-54
2021/01/07 16:17:18;;;;;;;0.13;0.10;;;4.20;99.90;;;;;;10364967;28;20116;-54
2021/01/07 16:22:42;;;;;;;0.73;0.43;;;4.30;99.90;;;;;;10371250;28;20100;-54
2021/01/07 16:28:10;;;;;;;0.38;0.05;;;4.20;99.90;;;;;;10371489;28;20042;-54
2021/01/07 16:33:32;;;;;;;0.88;0.40;;;4.10;99.90;;;;;;10370253;28;20489;-54
2021/01/07 16:38:53;;;;;;;2.75;0.70;;;4.00;99.90;;;;;;10368906;28;20037;-54
2021/01/07 16:44:14;;;;;;;0.52;0.10;;;4.10;99.90;;;;;;10366349;28;20074;-54
2021/01/07 16:49:35;;;;;;;1.42;0.43;;;4.00;99.90;;;;;;10370136;28;20038;-54
2021/01/07 16:54:56;;;;;;;2.30;0.17;;;4.00;99.90;;;;;;10370867;28;20065;-54
2021/01/07 17:00:18;;;;;;;0.30;0.05;;;4.10;99.90;;;;;;10365972;28;20560;-54
2021/01/07 17:05:39;;;;;;;2.92;0.32;;;4.00;99.90;;;;;;10366925;28;20092;-54
2021/01/07 17:11:00;;;;;;;0.65;0.30;;;4.00;99.90;;;;;;10368345;28;20132;-54
2021/01/07 17:16:21;;;;;;;0.22;0.10;;;4.00;99.90;;;;;;10368118;28;20699;-54
2021/01/07 17:21:42;;;;;;;0.55;0.38;;;4.00;99.90;;;;;;10367394;28;20107;-54
2021/01/07 17:27:04;;;;;;;1.15;0.40;;;4.00;99.90;;;;;;10366966;28;20057;-54
2021/01/07 17:32:26;;;;;;;0.52;0.30;;;4.00;99.90;;;;;;10368995;28;20092;-54
2021/01/07 17:37:47;;;;;;;1.17;0.40;;;4.00;99.90;;;;;;10367874;28;20042;-55
2021/01/07 17:43:08;;;;;;;1.42;0.65;;;4.10;99.90;;;;;;10365540;28;20047;-54
2021/01/07 17:48:29;;;;;;;1.42;1.20;;;4.00;99.90;;;;;;10368768;28;20034;-54
2021/01/07 17:53:50;;;;;;;1.13;0.35;;;4.00;99.90;;;;;;10376748;28;20393;-54
2021/01/07 17:59:11;;;;;;;3.08;1.23;;;4.00;99.90;;;;;;10376241;28;20042;-54
2021/01/07 18:04:32;;;;;;;0.63;0.30;;;4.00;99.90;;;;;;10365818;28;20045;-54
2021/01/07 18:09:53;;;;;;;2.25;1.05;;;4.00;99.90;;;;;;10365611;28;20045;-54
2021/01/07 18:15:15;;;;;;;7.55;0.95;;;4.10;99.90;;;;;;10361741;28;20051;-54
2021/01/07 18:20:36;;;;;;;2.75;0.60;;;4.10;99.90;;;;;;10364735;28;20706;-54
2021/01/07 18:25:57;;;;;;;2.88;1.52;;;4.10;99.90;;;;;;10365420;28;20037;-54
2021/01/07 18:31:19;;;;;;;0.93;0.40;;;4.10;99.90;;;;;;10380615;28;20074;-54
2021/01/07 18:36:40;;;;;;;2.08;0.35;;;4.00;99.90;;;;;;10363103;28;20059;-54
2021/01/07 18:42:01;;;;;;;2.08;0.30;;;4.10;99.90;;;;;;10360784;28;20029;-54
2021/01/07 18:47:22;;;;;;;1.23;0.35;;;4.00;99.90;;;;;;10358004;28;20049;-54
2021/01/07 18:52:43;;;;;;;3.28;0.60;;;4.00;99.90;;;;;;10359565;28;20091;-54
2021/01/07 18:58:06;;;;;;;0.75;0.20;;;4.00;99.90;;;;;;10359663;28;20554;-54
2021/01/07 19:03:28;;;;;;;1.45;0.70;;;4.10;99.90;;;;;;10358639;28;20033;-54
2021/01/07 19:08:49;;;;;;;1.98;0.30;;;4.00;99.90;;;;;;10359065;28;20105;-54
2021/01/07 19:14:10;;;;;;;1.05;0.38;;;4.00;99.90;;;;;;10364626;28;20504;-55
2021/01/07 19:19:31;;;;;;;0.60;0.30;;;4.00;99.90;;;;;;10358937;28;20048;-55
2021/01/07 19:24:52;;;;;;;0.57;0.30;;;4.00;99.90;;;;;;10356486;28;20037;-54
2021/01/07 19:30:13;;;;;;;0.47;0.20;;;4.00;99.90;;;;;;10369339;28;20042;-55
2021/01/07 19:35:34;;;;;;;0.17;0.10;;;4.00;99.90;;;;;;10356637;28;20049;-54
2021/01/07 19:40:55;;;;;;;3.03;0.52;;;4.10;99.90;;;;;;10359583;28;20048;-54
2021/01/07 19:46:20;;;;;;;1.15;0.15;;;4.10;99.90;;;;;;10356078;28;20588;-54
2021/01/07 19:51:41;;;;;;;0.45;0.08;;;4.10;99.90;;;;;;10358351;28;20120;-54
2021/01/07 19:57:04;;;;;;;0.08;0.08;;;4.10;99.90;;;;;;10367195;28;20061;-54
2021/01/07 20:02:25;;;;;;;0.22;0.03;;;4.00;99.90;;;;;;10368869;28;20687;-53
2021/01/07 20:07:48;;;;;;;0.20;0.10;;;4.00;99.90;;;;;;10363244;28;20558;-54
2021/01/07 20:13:09;;;;;;;0.57;0.20;;;3.90;99.90;;;;;;10363470;28;20148;-54
2021/01/07 20:18:30;;;;;;;0.20;0.10;;;3.90;99.90;;;;;;10364786;28;20504;-54
2021/01/07 20:23:51;;;;;;;1.20;0.22;;;3.80;99.90;;;;;;10355953;28;20101;-53
2021/01/07 20:29:12;;;;;;;0.32;0.10;;;3.70;99.90;;;;;;10362477;28;20118;-54
2021/01/07 20:34:33;;;;;;;0.75;0.28;;;3.70;99.90;;;;;;10359578;28;20473;-54
2021/01/07 20:39:54;;;;;;;0.95;0.63;;;3.60;99.90;;;;;;10357125;28;20910;-54
2021/01/07 20:45:15;;;;;;;0.35;0.10;;;3.60;99.90;;;;;;10361099;28;20557;-54
2021/01/07 20:50:37;;;;;;;2.30;0.15;;;3.60;99.90;;;;;;10375501;28;20048;-54
2021/01/07 20:55:58;;;;;;;0.95;0.20;;;3.70;99.90;;;;;;10361095;28;20092;-55
2021/01/07 21:01:19;;;;;;;0.75;0.45;;;3.70;99.90;;;;;;10352910;28;20085;-55
2021/01/07 21:06:40;;;;;;;0.85;0.30;;;3.60;99.90;;;;;;10361523;28;20037;-54
2021/01/07 21:12:02;;;;;;;0.43;0.15;;;3.60;99.90;;;;;;10357806;28;20041;-55
2021/01/07 21:17:24;;;;;;;0.80;0.30;;;3.60;99.90;;;;;;10357242;28;20057;-55
2021/01/07 21:22:45;;;;;;;1.08;0.32;;;3.60;99.90;;;;;;10356411;28;20052;-54
2021/01/07 21:28:06;;;;;;;1.90;0.52;;;3.70;99.90;;;;;;10361319;28;20046;-55
2021/01/07 21:33:27;;;;;;;0.85;0.43;;;3.60;99.90;;;;;;10356487;28;20369;-55
2021/01/07 21:38:48;;;;;;;1.17;0.50;;;3.60;99.90;;;;;;10360395;28;20762;-55
2021/01/07 21:44:08;;;;;;;0.85;0.30;;;3.60;99.90;;;;;;10360864;28;20034;-54
2021/01/07 21:49:30;;;;;;;0.17;0.10;;;3.60;99.90;;;;;;10359234;28;20081;-55
2021/01/07 21:54:51;;;;;;;0.17;0.00;;;3.70;99.90;;;;;;10358603;28;20052;-55
2021/01/07 22:00:13;;;;;;;1.70;0.30;;;3.60;99.90;;;;;;10358781;28;20486;-55
2021/01/07 22:05:34;;;;;;;0.30;0.10;;;3.60;99.90;;;;;;10358145;28;20033;-55
2021/01/07 22:10:55;;;;;;;0.30;0.25;;;3.60;99.90;;;;;;10359371;28;20049;-55
2021/01/07 22:16:22;;;;;;;1.15;0.20;;;3.60;99.90;;;;;;10351875;28;20042;-55
2021/01/07 22:21:43;;;;;;;0.28;0.15;;;3.60;99.90;;;;;;10358204;28;20128;-55
2021/01/07 22:27:05;;;;;;;0.10;0.00;;;3.60;99.90;;;;;;10359681;28;20044;-55
2021/01/07 22:32:25;;;;;;;0.20;0.10;;;3.60;99.90;;;;;;10355817;28;20076;-55
2021/01/07 22:37:46;;;;;;;0.55;0.17;;;3.50;99.90;;;;;;10355525;28;20042;-55
2021/01/07 22:43:07;;;;;;;0.63;0.40;;;3.50;99.90;;;;;;10359726;28;20042;-55
2021/01/07 22:48:28;;;;;;;0.35;0.15;;;3.50;99.90;;;;;;10356050;28;20077;-55
2021/01/07 22:53:50;;;;;;;1.38;0.32;;;3.50;99.90;;;;;;10360919;28;20038;-54
2021/01/07 22:59:11;;;;;;;0.65;0.15;;;3.50;99.90;;;;;;10353867;28;20164;-54
2021/01/07 23:04:32;;;;;;;1.90;0.98;;;3.50;99.90;;;;;;10359324;28;20077;-54
2021/01/07 23:09:53;;;;;;;2.60;0.40;;;3.50;99.90;;;;;;10358011;28;20095;-55
2021/01/07 23:15:14;;;;;;;0.63;0.30;;;3.50;99.90;;;;;;10357540;28;20049;-54
2021/01/07 23:20:35;;;;;;;0.10;0.10;;;3.50;99.90;;;;;;10354203;28;20060;-54
2021/01/07 23:25:56;;;;;;;0.93;0.52;;;3.50;99.90;;;;;;10357371;28;20049;-54
2021/01/07 23:31:17;;;;;;;1.80;0.20;;;3.60;99.90;;;;;;10364373;28;20073;-55
2021/01/07 23:36:38;;;;;;;2.28;0.77;;;3.60;99.90;;;;;;10360796;28;20046;-54
2021/01/07 23:41:58;;;;;;;1.20;0.20;;;3.60;99.90;;;;;;10368264;28;20159;-54
2021/01/07 23:47:22;;;;;;;0.00;0.00;;;3.50;99.90;;;;;;10364007;28;20560;-54
2021/01/07 23:52:48;;;;;;;0.38;0.20;;;3.50;99.90;;;;;;10364691;28;20045;-54
2021/01/07 23:58:09;;;;;;;0.25;0.10;;;3.60;99.90;;;;;;10366611;28;20049;-54
